Time;durP1;ratioP1;P1;durP2;ratioP2;P2;SDS_P1;SDS_P2;PMS_P1;PMS_P2;Temp;Humidity;BMP_temperature;BMP_pressure;BME280_temperature;BME280_humidity;BME280_pressure;Samples;Min_cycle;Max_cycle;Signal;HPM_P1;HPM_P2
2023/07/10 00:00:53;;;;;;;5.20;4.80;;;24.40;51.00;;;24.94;43.13;98121.78;5088715;28;20463;-74
2023/07/10 00:03:21;;;;;;;6.13;5.43;;;24.50;51.30;;;24.97;43.36;98121.19;5091960;28;20463;-75
2023/07/10 00:05:48;;;;;;;6.93;6.03;;;24.60;50.90;;;25.02;43.13;98112.78;5088856;28;21030;-75
2023/07/10 00:08:15;;;;;;;6.33;5.83;;;24.60;50.90;;;24.93;43.14;98117.38;5090736;28;20471;-73
2023/07/10 00:10:44;;;;;;;6.43;5.83;;;24.60;51.00;;;24.84;43.64;98115.34;5090974;28;20475;-71
2023/07/10 00:13:12;;;;;;;7.73;5.60;;;24.50;51.10;;;24.70;43.67;98104.25;5089888;28;20452;-73
2023/07/10 00:15:42;;;;;;;7.00;6.30;;;24.50;51.20;;;24.71;44.25;98116.94;5085743;28;20453;-73
2023/07/10 00:18:16;;;;;;;6.60;6.00;;;24.40;51.30;;;24.57;44.54;98108.66;5086933;28;20505;-74
2023/07/10 00:20:45;;;;;;;7.33;6.20;;;24.30;51.40;;;24.57;44.53;98108.66;5089852;28;20439;-70
2023/07/10 00:23:13;;;;;;;6.33;5.73;;;24.30;51.60;;;24.50;44.69;98099.97;5090094;28;20448;-72
2023/07/10 00:25:40;;;;;;;7.30;6.67;;;24.20;51.70;;;24.43;45.08;98105.06;5105320;28;20490;-70
2023/07/10 00:28:16;;;;;;;7.80;6.47;;;24.10;51.90;;;24.35;45.35;98101.06;5079797;28;20479;-73
2023/07/10 00:30:46;;;;;;;6.40;5.47;;;24.00;52.10;;;24.36;45.41;98113.75;5085615;28;20459;-70
2023/07/10 00:33:15;;;;;;;6.87;6.20;;;24.00;52.20;;;24.24;45.47;98111.50;5087386;28;20491;-73
2023/07/10 00:35:43;;;;;;;9.93;6.13;;;24.00;52.30;;;24.16;46.21;98104.72;5088340;28;20521;-72
2023/07/10 00:38:20;;;;;;;6.43;5.83;;;23.90;52.30;;;24.07;46.14;98094.69;5089570;28;20528;-73
2023/07/10 00:40:48;;;;;;;6.27;5.47;;;23.90;52.40;;;24.13;46.25;98113.63;5100106;28;20443;-73
2023/07/10 00:43:27;;;;;;;6.43;5.73;;;23.80;52.70;;;24.11;46.19;98112.28;5105820;28;20452;-73
2023/07/10 00:46:10;;;;;;;7.07;6.37;;;23.80;52.70;;;24.04;46.24;98104.38;5089088;28;20492;-74
2023/07/10 00:48:42;;;;;;;7.57;6.37;;;23.80;52.80;;;24.03;46.09;98095.28;5103806;27;20825;-73
2023/07/10 14:50:27;;;;;;;5.50;5.10;;;31.90;45.90;;;31.87;31.38;98160.53;5084175;27;20564;-76
2023/07/10 14:52:54;;;;;;;5.63;5.13;;;31.80;46.00;;;31.72;31.59;98138.91;5055556;28;20453;-75
2023/07/10 14:55:22;;;;;;;6.13;5.60;;;31.60;46.10;;;31.53;32.53;98137.56;5051742;28;21095;-75
2023/07/10 14:57:49;;;;;;;5.93;5.50;;;31.40;46.50;;;31.58;32.51;98140.09;5093030;27;20456;-75
2023/07/10 15:00:24;;;;;;;5.63;5.13;;;31.30;46.70;;;31.99;32.20;98144.91;5088668;28;20444;-75
2023/07/10 15:02:52;;;;;;;6.37;5.73;;;31.60;46.70;;;32.02;31.95;98124.63;5073180;28;20518;-77
2023/07/10 15:05:23;;;;;;;5.40;4.90;;;31.90;46.50;;;31.88;32.21;98142.59;5066785;28;20472;-76
2023/07/10 15:07:54;;;;;;;5.77;5.27;;;31.70;46.90;;;31.61;32.86;98136.59;5087064;28;20533;-75
2023/07/10 15:10:24;;;;;;;5.97;5.50;;;31.40;46.70;;;32.03;32.39;98137.44;5055069;28;20465;-80
2023/07/10 15:12:51;;;;;;;6.13;5.23;;;31.60;46.80;;;32.42;32.21;98143.31;5066672;28;20926;-81
2023/07/10 15:15:20;;;;;;;5.80;5.30;;;32.00;46.80;;;32.03;32.14;98135.47;5057195;28;20490;-82
2023/07/10 15:17:47;;;;;;;5.83;5.30;;;31.90;46.40;;;31.91;31.82;98125.13;5045152;28;20447;-82
2023/07/10 15:20:18;;;;;;;5.43;5.03;;;31.60;46.00;;;31.99;32.10;98133.72;5061153;28;20456;-81
2023/07/10 15:22:47;;;;;;;6.37;5.80;;;31.80;46.50;;;31.90;31.32;98129.09;5088955;28;20460;-79
2023/07/10 15:25:20;;;;;;;6.83;6.23;;;31.80;45.70;;;32.09;31.15;98136.00;5055069;28;20814;-82
2023/07/10 15:27:47;;;;;;;6.80;6.17;;;31.80;45.70;;;32.35;30.80;98117.94;5045103;28;20438;-83
2023/07/10 15:30:15;;;;;;;6.50;5.90;;;32.10;45.70;;;32.64;30.63;98125.13;5043113;28;20527;-81
2023/07/10 15:32:45;;;;;;;6.73;6.03;;;32.40;45.70;;;32.64;30.79;98118.69;5085001;28;20475;-75
2023/07/10 15:35:14;;;;;;;6.30;5.70;;;32.30;46.20;;;32.29;30.61;98117.38;5073092;28;20456;-75
2023/07/10 15:37:43;;;;;;;7.47;6.80;;;32.20;45.60;;;32.45;30.87;98120.22;5076049;28;20457;-76
2023/07/10 15:40:18;;;;;;;6.07;5.47;;;32.20;45.70;;;32.15;30.87;98117.81;5073134;28;20553;-74
2023/07/10 15:42:48;;;;;;;6.60;6.00;;;31.90;45.40;;;31.77;31.78;98117.13;5077676;28;20440;-76
2023/07/10 15:45:18;;;;;;;6.57;5.97;;;31.60;45.70;;;32.07;31.51;98121.56;5070923;28;21079;-81
2023/07/10 15:47:50;;;;;;;7.23;6.63;;;31.70;45.90;;;31.98;31.03;98115.34;5053871;28;20471;-77
2023/07/10 15:50:19;;;;;;;6.53;5.93;;;31.80;45.70;;;31.91;31.31;98113.97;5045667;28;20485;-81
2023/07/10 15:52:50;;;;;;;5.70;5.20;;;31.70;45.70;;;31.78;31.35;98120.78;5053593;28;20487;-79
2023/07/10 15:55:23;;;;;;;7.10;6.40;;;31.60;45.70;;;31.44;32.26;98109.81;5052969;28;20886;-82
2023/07/10 15:57:53;;;;;;;6.73;6.03;;;31.30;46.10;;;31.41;32.47;98118.88;5048345;28;20884;-81
2023/07/10 16:00:22;;;;;;;6.83;6.23;;;31.20;46.10;;;31.65;31.85;98117.19;5047698;28;20856;-78
2023/07/10 16:02:52;;;;;;;7.50;6.80;;;31.50;46.10;;;32.51;30.78;98115.19;5043775;28;20934;-78
2023/07/10 16:05:26;;;;;;;6.20;5.60;;;31.90;45.80;;;32.02;31.28;98113.44;5050599;28;20438;-81
2023/07/10 16:07:55;;;;;;;6.80;6.20;;;31.70;45.70;;;31.84;31.90;98108.19;5040722;28;20469;-80
2023/07/10 16:10:26;;;;;;;7.40;6.70;;;31.60;45.90;;;31.50;31.97;98111.16;5024032;28;20505;-78
2023/07/10 16:12:55;;;;;;;6.67;6.07;;;31.40;45.60;;;32.09;31.10;98110.88;5020951;28;20513;-80
2023/07/10 16:15:27;;;;;;;7.00;6.40;;;31.60;45.80;;;32.29;31.22;98116.56;5035421;28;20478;-79
2023/07/10 16:17:57;;;;;;;7.93;6.90;;;31.80;45.70;;;32.28;31.09;98103.78;5046359;28;20682;-82
2023/07/10 16:20:29;;;;;;;7.20;6.50;;;32.00;45.80;;;31.90;31.80;98112.34;5035080;28;20495;-82
2023/07/10 16:23:01;;;;;;;7.17;6.57;;;31.70;46.00;;;31.24;32.97;98114.38;5027417;28;20461;-76
2023/07/10 16:25:30;;;;;;;7.83;7.10;;;31.20;46.30;;;31.09;33.06;98111.09;5033332;28;20462;-84
2023/07/10 16:27:58;;;;;;;9.60;6.93;;;30.90;46.40;;;31.20;33.30;98119.81;5034439;28;20537;-79
2023/07/10 16:30:27;;;;;;;8.17;6.63;;;30.90;46.60;;;31.01;33.64;98112.03;5028353;28;20599;-78
2023/07/10 16:32:54;;;;;;;7.10;6.50;;;30.80;46.60;;;30.97;33.66;98115.91;5024968;28;20473;-79
2023/07/10 16:35:24;;;;;;;7.43;6.77;;;30.80;46.70;;;30.97;33.66;98110.31;5024664;28;20447;-78
2023/07/10 16:37:52;;;;;;;6.70;6.00;;;30.70;46.70;;;30.97;33.38;98115.91;5023108;28;20539;-78
2023/07/10 16:40:23;;;;;;;7.00;6.30;;;30.80;46.60;;;30.91;32.88;98062.31;5022889;28;20458;-84
2023/07/10 16:42:56;;;;;;;7.63;6.90;;;30.90;46.50;;;31.75;31.95;98113.06;5025331;28;20461;-86
2023/07/10 16:45:29;;;;;;;7.93;6.30;;;31.40;46.30;;;31.91;31.95;98113.97;5034888;28;21415;-76
2023/07/10 16:47:56;;;;;;;6.43;5.83;;;31.60;46.30;;;32.07;32.02;98138.31;5032881;28;20517;-81
2023/07/10 16:50:25;;;;;;;6.60;6.00;;;31.80;46.20;;;32.10;31.75;98120.88;5042302;28;20516;-80
2023/07/10 16:52:52;;;;;;;7.73;6.63;;;31.80;46.10;;;31.78;31.99;98115.19;5056455;28;20952;-83
2023/07/10 16:55:23;;;;;;;6.43;5.90;;;31.60;46.10;;;31.42;32.33;98119.69;5042117;28;20451;-81
2023/07/10 16:57:55;;;;;;;7.10;6.43;;;31.30;46.00;;;31.83;32.09;98116.91;5029773;28;20469;-80
2023/07/10 17:00:28;;;;;;;7.13;6.13;;;31.50;46.30;;;32.43;31.03;98114.19;5048263;28;20470;-80
2023/07/10 17:02:58;;;;;;;7.07;6.47;;;31.90;45.90;;;33.27;29.91;98105.81;5039502;28;21128;-84
2023/07/10 17:05:25;;;;;;;6.10;5.60;;;32.60;45.70;;;32.99;30.23;98118.00;5035404;28;20464;-79
2023/07/10 17:07:54;;;;;;;6.30;5.70;;;32.60;45.40;;;32.57;30.85;98112.94;5036616;28;20509;-76
2023/07/10 17:10:22;;;;;;;8.10;6.47;;;32.30;45.60;;;32.30;31.21;98112.59;5044582;28;20484;-78
2023/07/10 17:12:51;;;;;;;6.77;6.17;;;32.10;45.70;;;32.43;31.22;98111.38;5036791;28;20457;-78
2023/07/10 17:15:23;;;;;;;6.23;5.63;;;32.30;45.80;;;32.25;31.65;98105.28;5031925;28;20462;-81
2023/07/10 17:17:50;;;;;;;6.00;5.50;;;32.00;46.00;;;31.71;32.37;98112.97;5036529;28;20872;-80
2023/07/10 17:20:19;;;;;;;6.70;6.10;;;31.60;46.20;;;31.68;32.29;98112.88;5041453;28;20520;-80
2023/07/10 17:22:46;;;;;;;6.40;5.90;;;31.40;46.30;;;31.54;32.71;98108.50;5029780;28;20469;-75
2023/07/10 17:25:16;;;;;;;7.00;6.40;;;31.40;46.30;;;31.52;32.74;98102.47;5034321;28;20476;-82
2023/07/10 17:27:44;;;;;;;5.40;4.90;;;31.20;46.50;;;31.26;33.16;98105.66;5033538;28;20466;-82
2023/07/10 17:30:15;;;;;;;6.07;5.57;;;31.20;46.50;;;31.60;32.71;98109.84;5033937;28;20512;-78
2023/07/10 17:32:45;;;;;;;6.73;5.93;;;31.20;46.70;;;31.47;32.95;98111.09;5042459;28;20451;-80
2023/07/10 17:35:17;;;;;;;6.13;5.60;;;31.20;46.70;;;30.90;33.20;98039.19;5038409;28;20461;-80
2023/07/10 17:37:48;;;;;;;6.60;5.90;;;31.10;46.60;;;31.47;33.39;98105.50;5037454;28;20465;-82
2023/07/10 17:40:16;;;;;;;5.60;5.10;;;31.20;46.70;;;31.28;33.55;98104.13;5038465;28;20513;-80
2023/07/10 17:42:44;;;;;;;7.10;6.40;;;31.10;46.60;;;31.27;33.37;98113.66;5040806;28;20480;-84
2023/07/10 17:45:19;;;;;;;6.63;6.03;;;31.10;46.90;;;30.91;33.62;98107.75;5037300;28;20461;-81
2023/07/10 17:47:48;;;;;;;8.10;6.30;;;30.80;46.80;;;30.85;33.90;98114.72;5034715;28;20465;-74
2023/07/10 17:50:17;;;;;;;7.10;6.50;;;30.60;47.10;;;30.86;34.33;98116.34;5034524;28;20499;-83
2023/07/10 17:52:46;;;;;;;7.37;6.67;;;30.60;47.20;;;30.57;34.69;98120.16;5036335;28;20468;-79
2023/07/10 17:55:18;;;;;;;6.87;6.27;;;30.50;47.10;;;30.45;35.23;98124.53;5036001;28;20471;-82
2023/07/10 17:57:45;;;;;;;7.13;6.53;;;30.40;47.30;;;30.54;35.28;98116.06;5035547;28;20459;-83
2023/07/10 18:00:14;;;;;;;7.50;6.70;;;30.30;47.60;;;30.82;34.41;98115.44;5043928;28;20525;-82
2023/07/10 18:02:44;;;;;;;7.47;6.87;;;30.50;47.50;;;30.39;34.79;98047.88;5046645;28;20458;-81
2023/07/10 18:05:17;;;;;;;7.00;6.40;;;30.50;47.50;;;30.48;35.52;98121.06;5035435;28;20453;-76
2023/07/10 18:07:44;;;;;;;7.10;6.50;;;30.50;47.80;;;30.35;36.10;98113.84;5034352;28;21156;-82
2023/07/10 18:10:12;;;;;;;7.97;6.70;;;30.30;48.20;;;30.10;36.71;98114.59;5049316;28;20465;-73
2023/07/10 18:12:40;;;;;;;7.30;6.60;;;30.00;48.20;;;30.26;36.57;98116.72;5055532;28;20450;-77
2023/07/10 18:15:15;;;;;;;8.23;7.30;;;30.00;48.50;;;30.20;36.75;98121.69;5047308;28;20486;-73
2023/07/10 18:17:44;;;;;;;8.43;7.60;;;30.00;48.50;;;29.58;37.57;98126.97;5037768;28;20450;-77
2023/07/10 18:20:12;;;;;;;7.87;7.10;;;29.60;48.70;;;29.55;37.87;98119.31;5045797;28;20468;-75
2023/07/10 18:22:42;;;;;;;7.00;6.40;;;29.40;49.10;;;29.47;38.39;98132.16;5039090;28;21241;-77
2023/07/10 18:25:17;;;;;;;8.90;8.10;;;29.40;49.20;;;29.50;38.46;98125.09;5054775;28;20484;-74
2023/07/10 18:27:45;;;;;;;7.83;7.03;;;29.40;49.40;;;29.06;39.26;98133.69;5067509;28;20528;-79
2023/07/10 18:30:15;;;;;;;8.13;7.33;;;29.00;49.50;;;28.66;39.98;98132.03;5034054;28;20479;-82
2023/07/10 18:32:42;;;;;;;7.03;6.33;;;28.70;49.90;;;28.59;40.22;98137.31;5047309;28;20446;-76
2023/07/10 18:35:16;;;;;;;7.40;6.77;;;28.50;50.50;;;28.45;40.58;98138.34;5049620;28;20465;-74
2023/07/10 18:37:45;;;;;;;8.37;7.50;;;28.40;50.40;;;28.21;41.29;98125.00;5049195;28;20443;-74
2023/07/10 18:40:13;;;;;;;7.87;7.17;;;28.20;50.60;;;28.10;42.01;98138.38;5041749;28;20478;-73
2023/07/10 18:42:42;;;;;;;8.10;7.30;;;28.10;50.90;;;28.01;41.78;98124.50;5050865;28;20457;-77
2023/07/10 18:45:17;;;;;;;9.07;8.17;;;28.00;51.00;;;28.02;42.09;98139.22;5055889;28;20446;-84
2023/07/10 18:47:44;;;;;;;7.17;6.57;;;27.90;51.20;;;27.94;42.27;98141.66;5045260;28;20469;-77
2023/07/10 18:50:16;;;;;;;7.87;7.00;;;27.80;51.30;;;27.70;42.63;98142.16;5041071;28;20482;-80
2023/07/10 18:52:46;;;;;;;8.50;7.70;;;27.70;51.40;;;27.69;42.92;98146.09;5033964;28;20489;-82
2023/07/10 18:55:18;;;;;;;8.03;7.33;;;27.50;51.90;;;27.65;42.64;98143.13;5045022;28;20443;-81
2023/07/10 18:57:47;;;;;;;8.20;7.50;;;27.60;51.70;;;27.58;43.52;98145.59;5048723;28;20449;-80
2023/07/10 19:00:22;;;;;;;9.20;8.30;;;27.40;51.90;;;27.33;43.65;98139.66;5040768;28;20494;-78
2023/07/10 19:02:51;;;;;;;8.97;8.10;;;27.30;52.00;;;27.19;44.32;98142.56;5033907;28;20480;-84
2023/07/10 19:05:18;;;;;;;8.00;7.20;;;27.20;52.20;;;27.12;44.40;98145.81;5044232;28;20478;-84
2023/07/10 19:07:50;;;;;;;7.97;7.30;;;27.10;52.40;;;26.96;45.02;98153.75;5042060;28;20453;-81
2023/07/10 19:10:19;;;;;;;8.70;7.77;;;26.90;52.70;;;27.00;44.89;98140.91;5048699;28;20474;-81
2023/07/10 19:12:46;;;;;;;8.50;7.70;;;26.90;52.70;;;26.95;44.81;98143.00;5046117;28;20539;-85
2023/07/10 19:15:15;;;;;;;9.30;8.27;;;26.80;52.90;;;26.84;45.26;98146.03;5035724;28;20492;-82
2023/07/10 19:17:43;;;;;;;8.63;7.20;;;26.70;53.30;;;26.71;45.85;98152.50;5046466;28;20450;-75
2023/07/10 19:20:20;;;;;;;8.43;7.63;;;26.60;53.40;;;26.53;46.41;98152.41;5049193;28;20519;-77
2023/07/10 19:22:50;;;;;;;8.10;7.30;;;26.40;53.70;;;26.33;47.08;98156.53;5035222;28;21012;-75
2023/07/10 19:25:17;;;;;;;9.47;8.50;;;26.30;54.00;;;26.38;47.02;98161.94;5057545;28;20545;-78
2023/07/10 19:27:45;;;;;;;9.00;7.70;;;26.20;54.20;;;26.25;47.43;98154.53;5039433;28;20446;-78
2023/07/10 19:30:26;;;;;;;9.23;8.00;;;26.10;54.50;;;26.09;47.85;98159.59;5037180;28;20478;-82
2023/07/10 19:32:54;;;;;;;8.60;7.43;;;26.00;54.80;;;25.87;48.20;98161.25;5037136;28;20460;-78
2023/07/10 19:35:22;;;;;;;8.33;7.57;;;25.80;55.00;;;25.81;48.47;98165.25;5043266;28;20457;-81
2023/07/10 19:37:51;;;;;;;9.73;8.50;;;25.70;55.30;;;25.93;48.54;98181.28;5032002;28;20461;-81
2023/07/10 19:40:21;;;;;;;8.60;7.80;;;25.70;55.50;;;25.45;49.03;98126.22;5050492;28;20446;-80
2023/07/10 19:42:49;;;;;;;8.57;7.80;;;25.70;55.60;;;25.61;49.19;98167.38;5066363;28;20460;-79
2023/07/10 19:45:16;;;;;;;9.03;8.23;;;25.60;55.80;;;25.60;49.14;98191.44;5044529;28;20462;-78
2023/07/10 19:47:45;;;;;;;8.70;7.90;;;25.50;55.90;;;25.55;49.04;98176.91;5055245;28;20470;-79
2023/07/10 19:50:18;;;;;;;8.97;8.10;;;25.50;55.90;;;25.53;49.58;98182.75;5037481;28;21045;-79
2023/07/10 19:52:45;;;;;;;9.60;8.70;;;25.40;56.20;;;25.49;49.41;98184.53;5035023;28;20496;-79
2023/07/10 19:55:16;;;;;;;9.97;9.00;;;25.40;56.30;;;25.39;49.98;98184.69;5028370;28;20450;-82
2023/07/10 19:57:48;;;;;;;8.93;8.03;;;25.30;56.40;;;25.27;50.02;98188.00;5037683;28;20466;-80
2023/07/10 20:00:21;;;;;;;9.57;8.63;;;25.20;56.60;;;25.26;49.73;98186.38;5040260;28;21194;-82
2023/07/10 20:02:50;;;;;;;8.33;7.63;;;25.10;56.60;;;25.10;50.25;98186.69;5037784;28;21212;-83
2023/07/10 20:05:17;;;;;;;9.50;8.50;;;25.00;56.80;;;25.00;50.56;98195.16;5039869;28;20594;-75
2023/07/10 20:07:44;;;;;;;9.40;8.00;;;24.90;57.00;;;24.92;50.68;98196.69;5040397;28;20970;-82
2023/07/10 20:10:17;;;;;;;8.97;8.07;;;24.90;57.20;;;25.01;50.63;98191.28;5017602;28;20961;-75
2023/07/10 20:12:44;;;;;;;9.70;8.80;;;24.90;57.40;;;25.13;50.63;98194.34;5025825;28;20872;-77
2023/07/10 20:15:15;;;;;;;10.30;9.30;;;24.90;57.60;;;25.04;50.84;98190.66;5024927;28;20450;-69
2023/07/10 20:17:45;;;;;;;9.27;8.23;;;24.80;57.50;;;24.96;50.71;98196.91;5025682;28;20542;-77
2023/07/10 20:20:24;;;;;;;9.70;8.70;;;24.80;57.80;;;24.93;51.35;98191.97;5047365;28;20577;-72
2023/07/10 20:22:52;;;;;;;10.20;8.37;;;24.70;58.00;;;24.87;50.87;98194.84;5022020;28;20528;-75
2023/07/10 20:25:21;;;;;;;9.73;8.30;;;24.70;58.10;;;24.73;51.66;98189.28;5025552;28;20462;-78
2023/07/10 20:27:48;;;;;;;10.43;9.43;;;24.60;58.30;;;24.71;51.76;98196.25;5034917;28;20595;-75
2023/07/10 20:30:19;;;;;;;11.83;8.87;;;24.60;58.40;;;24.57;52.21;98202.56;5028847;28;20951;-79
2023/07/10 20:32:46;;;;;;;9.27;8.37;;;24.40;58.60;;;24.53;52.11;98207.06;5027950;28;20462;-75
2023/07/10 20:35:15;;;;;;;9.20;8.30;;;24.30;58.90;;;24.47;52.58;98197.19;5021542;28;20453;-75
2023/07/10 20:37:43;;;;;;;10.30;8.87;;;24.30;59.40;;;24.36;53.04;98196.56;5025046;28;20953;-75
2023/07/10 20:40:14;;;;;;;12.70;9.33;;;24.20;59.50;;;24.31;53.52;98191.94;5030229;28;20527;-78
2023/07/10 20:42:42;;;;;;;9.67;8.40;;;24.10;60.00;;;24.24;53.61;98199.81;5039867;28;20505;-77
2023/07/10 20:45:14;;;;;;;8.30;7.50;;;24.10;60.10;;;24.19;53.40;98191.63;5032236;28;20488;-77
2023/07/10 20:47:47;;;;;;;9.77;8.77;;;24.10;60.00;;;24.20;53.93;98187.75;5024105;28;20470;-75
2023/07/10 20:50:15;;;;;;;10.40;8.90;;;24.10;60.70;;;24.10;54.69;98190.66;5023346;28;20996;-75
2023/07/10 20:52:44;;;;;;;9.57;8.57;;;23.90;61.00;;;23.99;54.40;98193.53;5056287;28;20461;-73
2023/07/10 20:55:12;;;;;;;8.83;7.80;;;23.80;61.10;;;23.90;54.88;98192.59;5030310;28;20449;-78
2023/07/10 20:57:42;;;;;;;9.70;8.73;;;23.70;61.30;;;23.84;54.81;98196.53;5044046;28;20469;-76
2023/07/10 21:00:15;;;;;;;9.77;8.77;;;23.70;61.70;;;23.75;55.38;98199.97;5031551;28;20460;-77
2023/07/10 21:02:43;;;;;;;8.77;7.87;;;23.60;62.20;;;23.67;55.60;98208.09;5032379;28;20474;-72
2023/07/10 21:05:13;;;;;;;10.33;8.17;;;23.50;62.60;;;23.60;55.61;98202.97;5021982;28;20467;-74
2023/07/10 21:07:40;;;;;;;9.77;8.77;;;23.40;62.90;;;23.76;55.05;98203.53;5027838;28;20458;-73
2023/07/10 21:10:12;;;;;;;9.83;8.80;;;23.50;63.20;;;23.79;54.71;98180.88;5026601;28;20454;-73
2023/07/10 21:12:39;;;;;;;9.70;8.73;;;23.70;62.50;;;23.68;54.99;98194.00;5030173;28;20461;-70
2023/07/10 21:15:14;;;;;;;10.37;9.37;;;23.60;62.60;;;23.68;55.37;98202.28;5032579;28;20523;-72
2023/07/10 21:17:41;;;;;;;9.73;8.83;;;23.50;63.20;;;23.60;55.43;98206.53;5020180;28;20460;-72
2023/07/10 21:20:17;;;;;;;8.90;8.00;;;23.50;63.10;;;23.49;56.04;98208.59;5025293;28;20564;-73
2023/07/10 21:22:45;;;;;;;10.03;9.03;;;23.40;63.50;;;23.33;55.60;98198.91;5022373;28;20453;-74
2023/07/10 21:25:12;;;;;;;10.10;9.10;;;23.30;63.40;;;23.30;55.63;98199.50;5012113;28;20461;-73
2023/07/10 21:27:40;;;;;;;10.03;9.03;;;23.20;63.30;;;23.22;56.16;98198.19;5028576;28;21021;-74
2023/07/10 21:30:18;;;;;;;9.60;8.70;;;23.10;63.90;;;23.12;56.65;98195.53;5015310;28;20458;-72
2023/07/10 21:32:46;;;;;;;10.13;9.13;;;23.00;64.40;;;23.23;56.00;98199.81;5038938;28;20539;-72
2023/07/10 21:35:27;;;;;;;9.60;8.60;;;23.10;64.50;;;23.12;56.63;98198.28;5023191;28;20458;-73
2023/07/10 21:37:54;;;;;;;10.67;8.87;;;23.00;64.60;;;22.57;56.81;98120.44;5020737;28;20456;-75
2023/07/10 21:40:22;;;;;;;9.80;8.90;;;22.90;65.30;;;22.97;57.56;98185.50;5028869;28;20468;-71
2023/07/10 21:42:49;;;;;;;10.70;8.73;;;22.90;66.00;;;22.73;57.79;98154.09;5027951;28;20946;-73
2023/07/10 21:45:17;;;;;;;9.57;8.67;;;22.90;66.60;;;22.96;57.75;98192.13;5021814;28;20544;-71
2023/07/10 21:47:45;;;;;;;11.30;10.10;;;22.80;67.10;;;22.84;58.26;98187.88;5022999;28;20465;-74
2023/07/10 21:50:15;;;;;;;10.30;9.03;;;22.80;67.70;;;22.81;58.83;98198.66;5030428;28;20461;-73
2023/07/10 21:52:43;;;;;;;9.90;8.70;;;22.70;68.30;;;22.76;59.09;98202.28;5019748;28;20466;-76
2023/07/10 21:55:14;;;;;;;11.17;9.23;;;22.60;69.00;;;22.77;58.47;98195.66;5023517;28;21108;-74
2023/07/10 21:57:41;;;;;;;9.00;8.13;;;22.60;68.80;;;23.07;58.38;98190.91;5035954;28;20646;-77
2023/07/10 22:00:18;;;;;;;10.10;9.00;;;22.80;69.60;;;23.10;57.44;98195.81;5027220;28;20541;-79
2023/07/10 22:02:46;;;;;;;10.73;9.70;;;22.90;68.30;;;22.89;57.76;98185.06;5029023;28;20452;-76
2023/07/10 22:05:15;;;;;;;10.83;9.83;;;22.90;67.90;;;22.75;57.96;98195.13;5019587;28;20475;-77
2023/07/10 22:07:42;;;;;;;13.87;9.30;;;22.70;68.20;;;22.61;58.84;98195.81;5036872;28;20542;-77
2023/07/10 22:10:10;;;;;;;9.27;8.30;;;22.60;69.10;;;22.53;59.38;98201.97;5032097;28;20539;-76
2023/07/10 22:12:37;;;;;;;11.00;9.30;;;22.40;70.00;;;22.60;59.35;98194.16;5029347;28;20995;-76
2023/07/10 22:15:21;;;;;;;10.33;9.43;;;22.40;70.50;;;22.63;59.44;98192.78;5038454;28;20461;-74
2023/07/10 22:17:48;;;;;;;10.53;9.50;;;22.50;71.10;;;22.57;59.25;98183.75;5033577;28;20939;-76
2023/07/10 22:20:18;;;;;;;10.10;9.03;;;22.50;70.70;;;22.61;59.68;98193.06;5039034;28;20447;-76
2023/07/10 22:22:45;;;;;;;11.77;9.40;;;22.50;71.20;;;22.58;60.30;98196.41;5049160;28;20489;-75
2023/07/10 22:25:14;;;;;;;9.83;8.90;;;22.50;72.00;;;22.13;61.13;98146.16;5027601;28;20938;-75
2023/07/10 22:27:41;;;;;;;11.07;9.67;;;22.40;72.90;;;22.37;61.44;98187.47;5024963;28;20497;-72
2023/07/10 22:30:09;;;;;;;12.13;9.30;;;22.30;73.80;;;22.22;62.08;98191.19;5040727;28;20445;-74
2023/07/10 22:32:38;;;;;;;11.47;10.27;;;22.20;74.70;;;22.04;62.48;98199.00;5055855;28;20483;-74
2023/07/10 22:35:07;;;;;;;12.03;9.63;;;22.00;75.50;;;21.92;62.99;98196.63;5028600;28;20516;-74
2023/07/10 22:37:34;;;;;;;11.63;10.00;;;21.90;76.60;;;21.94;63.15;98204.59;5033511;28;20798;-76
2023/07/10 22:40:01;;;;;;;10.13;9.10;;;21.80;77.20;;;21.94;63.36;98210.09;5029237;28;20554;-76
2023/07/10 22:42:28;;;;;;;10.20;9.20;;;21.80;77.90;;;21.86;63.26;98208.78;5025367;28;20475;-76
2023/07/10 22:44:56;;;;;;;11.53;10.20;;;21.70;78.10;;;21.81;63.59;98206.06;5038836;28;20476;-76
2023/07/10 22:47:23;;;;;;;11.30;10.03;;;21.70;78.60;;;21.72;63.64;98202.28;5030308;28;20710;-74
2023/07/10 22:49:54;;;;;;;10.83;9.70;;;21.60;78.80;;;21.79;63.67;98198.09;5039075;28;20485;-75
2023/07/10 22:52:21;;;;;;;11.60;10.40;;;21.60;79.30;;;21.81;63.53;98202.50;5025458;28;20483;-72
2023/07/10 22:54:50;;;;;;;11.30;10.20;;;21.70;79.50;;;21.75;63.38;98197.00;5042424;28;20447;-76
2023/07/10 22:57:17;;;;;;;11.60;10.57;;;21.60;79.30;;;21.71;63.40;98193.19;5017281;28;20464;-74
2023/07/10 22:59:45;;;;;;;11.27;10.20;;;21.60;79.50;;;21.69;63.51;98191.84;5045821;28;20458;-75
2023/07/10 23:02:13;;;;;;;11.70;10.50;;;21.60;79.60;;;21.78;63.45;98196.47;5033188;28;20484;-75
2023/07/10 23:04:40;;;;;;;11.10;10.00;;;21.60;79.70;;;21.85;63.71;98201.66;5024216;28;20470;-73
2023/07/10 23:07:09;;;;;;;12.30;9.73;;;21.70;80.10;;;21.77;64.31;98194.00;5039616;28;20495;-73
2023/07/10 23:09:36;;;;;;;14.37;10.47;;;21.70;80.40;;;21.74;63.65;98195.38;5030881;28;21235;-75
2023/07/10 23:12:05;;;;;;;10.43;9.40;;;21.70;80.30;;;21.68;63.42;98201.19;5031516;28;20466;-71
2023/07/10 23:14:32;;;;;;;10.97;9.90;;;21.60;79.80;;;21.67;63.84;98199.53;5036816;28;20494;-73
2023/07/10 23:16:59;;;;;;;11.73;10.53;;;21.50;80.10;;;21.69;63.84;98203.66;5030343;28;20505;-76
2023/07/10 23:19:26;;;;;;;12.07;10.67;;;21.60;80.30;;;21.64;64.13;98211.91;5035053;28;20539;-75
2023/07/10 23:21:53;;;;;;;11.97;10.73;;;21.60;80.40;;;21.77;64.55;98216.81;5030825;28;20718;-77
2023/07/10 23:24:22;;;;;;;13.73;10.67;;;21.70;81.00;;;21.92;63.69;98204.88;5036017;28;20461;-75
2023/07/10 23:26:49;;;;;;;11.03;10.00;;;21.80;80.60;;;22.02;63.19;98215.00;5033457;28;20512;-70
2023/07/10 23:29:16;;;;;;;11.50;10.50;;;21.90;80.20;;;22.27;61.60;98202.16;5051972;28;20451;-72
2023/07/10 23:31:43;;;;;;;13.60;12.30;;;22.20;79.00;;;21.76;63.16;98212.44;5028293;28;20476;-75
2023/07/10 23:34:13;;;;;;;12.10;10.83;;;22.00;78.90;;;21.63;63.73;98213.03;5038456;28;20467;-74
2023/07/10 23:36:40;;;;;;;12.77;11.57;;;21.80;79.30;;;21.54;64.09;98206.47;5032781;28;20534;-77
2023/07/10 23:39:07;;;;;;;13.23;11.83;;;21.70;79.80;;;21.50;64.03;98198.78;5029824;28;20530;-76
2023/07/10 23:41:36;;;;;;;14.70;12.70;;;21.50;80.10;;;21.53;64.38;98205.63;5036361;28;20462;-77
2023/07/10 23:44:03;;;;;;;11.20;10.10;;;21.50;80.50;;;21.64;64.35;98198.16;5038685;28;20469;-74
2023/07/10 23:46:30;;;;;;;12.03;10.93;;;21.50;81.00;;;21.66;63.63;98190.50;5029997;28;20465;-74
2023/07/10 23:48:58;;;;;;;13.00;11.70;;;21.70;80.30;;;21.61;64.06;98193.22;5032715;28;20473;-74
2023/07/10 23:51:25;;;;;;;12.93;11.63;;;21.60;80.40;;;21.42;64.50;98201.31;5027860;28;20479;-75
2023/07/10 23:53:52;;;;;;;12.37;11.07;;;21.50;80.30;;;21.25;65.07;98204.41;5045226;28;20447;-74
2023/07/10 23:56:19;;;;;;;13.40;11.77;;;21.40;80.90;;;21.15;65.39;98211.56;5029255;28;20464;-73
2023/07/10 23:58:48;;;;;;;11.93;10.83;;;21.20;81.60;;;21.12;65.11;98206.66;5038586;28;20460;-75
